Time,TemperatureF,DewpointF,PressureIn,WindDirection,WindDirectionDegrees,WindSpeedMPH,WindSpeedGustMPH,Humidity,HourlyPrecipIn,Conditions,Clouds,dailyrainin,SoftwareType,DateUTC
2013-03-30 00:02:00,57.0,47.0,30.27,East,84,0.0,0.0,69,0.00,,,0.00,,2013-03-30 04:02:00,
2013-03-30 00:12:00,57.0,47.0,30.27,East,84,0.0,0.0,69,0.00,,,0.00,,2013-03-30 04:12:00,
2013-03-30 00:23:00,56.0,46.0,30.26,East,84,0.0,0.0,70,0.00,,,0.00,,2013-03-30 04:23:00,
2013-03-30 00:32:00,55.0,46.0,30.26,East,84,0.0,0.0,72,0.00,,,0.00,,2013-03-30 04:32:00,
2013-03-30 00:43:00,55.0,46.0,30.26,East,84,0.0,0.0,72,0.00,,,0.00,,2013-03-30 04:43:00,
2013-03-30 00:53:00,55.0,47.0,30.26,East,84,0.0,0.0,73,0.00,,,0.00,,2013-03-30 04:53:00,
2013-03-30 01:02:00,54.0,46.0,30.25,East,84,0.0,0.0,75,0.00,,,0.00,,2013-03-30 05:02:00,
2013-03-30 01:12:00,54.0,46.0,30.25,East,84,0.0,0.0,75,0.00,,,0.00,,2013-03-30 05:12:00,
2013-03-30 01:22:00,54.0,46.0,30.25,East,84,0.0,0.0,75,0.00,,,0.00,,2013-03-30 05:22:00,
2013-03-30 01:32:00,53.0,46.0,30.24,East,84,0.0,0.0,77,0.00,,,0.00,,2013-03-30 05:32:00,
2013-03-30 01:42:00,53.0,46.0,30.24,East,84,0.0,0.0,77,0.00,,,0.00,,2013-03-30 05:42:00,
2013-03-30 01:52:00,52.0,46.0,30.24,East,84,0.0,0.0,79,0.00,,,0.00,,2013-03-30 05:52:00,
2013-03-30 02:02:00,53.0,47.0,30.24,East,84,0.0,0.0,79,0.00,,,0.00,,2013-03-30 06:02:00,
2013-03-30 02:12:00,53.0,47.0,30.24,East,84,0.0,0.0,79,0.00,,,0.00,,2013-03-30 06:12:00,
2013-03-30 02:23:00,53.0,47.0,30.24,East,84,0.0,0.0,79,0.00,,,0.00,,2013-03-30 06:23:00,
2013-03-30 02:32:00,53.0,47.0,30.24,East,84,0.0,0.0,80,0.00,,,0.00,,2013-03-30 06:32:00,
2013-03-30 02:42:00,53.0,47.0,30.24,East,84,0.0,0.0,80,0.00,,,0.00,,2013-03-30 06:42:00,
2013-03-30 02:52:00,53.0,47.0,30.24,East,84,0.0,0.0,79,0.00,,,0.00,,2013-03-30 06:52:00,
2013-03-30 03:02:00,53.0,47.0,30.24,East,84,0.0,0.0,79,0.00,,,0.00,,2013-03-30 07:02:00,
2013-03-30 03:12:00,53.0,47.0,30.24,East,84,0.0,0.0,79,0.00,,,0.00,,2013-03-30 07:12:00,
2013-03-30 03:22:00,52.0,46.0,30.24,East,84,0.0,0.0,81,0.00,,,0.00,,2013-03-30 07:22:00,
2013-03-30 03:32:00,52.0,46.0,30.24,East,84,0.0,0.0,81,0.00,,,0.00,,2013-03-30 07:32:00,
2013-03-30 03:42:00,52.0,46.0,30.24,East,84,0.0,0.0,81,0.00,,,0.00,,2013-03-30 07:42:00,
2013-03-30 03:52:00,52.0,47.0,30.23,East,84,0.0,0.0,82,0.00,,,0.00,,2013-03-30 07:52:00,
2013-03-30 04:02:00,51.0,46.0,30.23,East,84,0.0,0.0,83,0.00,,,0.00,,2013-03-30 08:02:00,
2013-03-30 04:12:00,51.0,46.0,30.23,East,84,0.0,0.0,83,0.00,,,0.00,,2013-03-30 08:12:00,
2013-03-30 04:22:00,51.0,46.0,30.22,East,84,0.0,0.0,83,0.00,,,0.00,,2013-03-30 08:22:00,
2013-03-30 04:32:00,51.0,46.0,30.22,East,84,0.0,0.0,83,0.00,,,0.00,,2013-03-30 08:32:00,
2013-03-30 04:42:00,51.0,46.0,30.22,East,84,0.0,0.0,83,0.00,,,0.00,,2013-03-30 08:42:00,
2013-03-30 04:53:00,51.0,46.0,30.22,East,84,0.0,0.0,84,0.00,,,0.00,,2013-03-30 08:53:00,
2013-03-30 05:02:00,52.0,47.0,30.21,East,84,0.0,0.0,84,0.00,,,0.00,,2013-03-30 09:02:00,
2013-03-30 05:12:00,52.0,47.0,30.21,East,84,0.0,0.0,84,0.00,,,0.00,,2013-03-30 09:12:00,
2013-03-30 05:22:00,52.0,47.0,30.21,East,84,0.0,0.0,84,0.00,,,0.00,,2013-03-30 09:22:00,
2013-03-30 05:43:00,52.0,47.0,30.21,East,84,0.0,0.0,84,0.00,,,0.00,,2013-03-30 09:43:00,
2013-03-30 05:53:00,52.0,48.0,30.21,East,84,0.0,0.0,85,0.00,,,0.00,,2013-03-30 09:53:00,
2013-03-30 06:02:00,52.0,48.0,30.22,East,84,0.0,0.0,85,0.00,,,0.00,,2013-03-30 10:02:00,
2013-03-30 06:13:00,52.0,48.0,30.22,East,84,0.0,0.0,85,0.00,,,0.00,,2013-03-30 10:13:00,
2013-03-30 06:23:00,51.0,47.0,30.22,East,84,0.0,0.0,85,0.00,,,0.00,,2013-03-30 10:23:00,
2013-03-30 06:33:00,51.0,47.0,30.22,East,84,0.0,0.0,85,0.00,,,0.00,,2013-03-30 10:33:00,
2013-03-30 06:42:00,51.0,47.0,30.22,East,84,0.0,0.0,85,0.00,,,0.00,,2013-03-30 10:42:00,
2013-03-30 06:52:00,51.0,47.0,30.22,East,84,0.0,0.0,85,0.00,,,0.00,,2013-03-30 10:52:00,
2013-03-30 07:03:00,51.0,47.0,30.23,East,84,0.0,0.0,85,0.00,,,0.00,,2013-03-30 11:03:00,
2013-03-30 07:12:00,51.0,47.0,30.23,East,84,0.0,0.0,85,0.00,,,0.00,,2013-03-30 11:12:00,
2013-03-30 07:22:00,51.0,47.0,30.23,East,84,0.0,0.0,85,0.00,,,0.00,,2013-03-30 11:22:00,
2013-03-30 07:33:00,51.0,47.0,30.24,East,84,0.0,0.0,85,0.00,,,0.00,,2013-03-30 11:33:00,
2013-03-30 07:42:00,51.0,47.0,30.24,East,84,0.0,0.0,85,0.00,,,0.00,,2013-03-30 11:42:00,
2013-03-30 07:53:00,51.0,47.0,30.25,East,84,0.0,0.0,85,0.00,,,0.00,,2013-03-30 11:53:00,
2013-03-30 08:02:00,51.0,47.0,30.25,East,84,0.0,0.0,85,0.00,,,0.00,,2013-03-30 12:02:00,
2013-03-30 08:12:00,51.0,47.0,30.25,East,84,0.0,0.0,85,0.00,,,0.00,,2013-03-30 12:12:00,
2013-03-30 08:22:00,53.0,49.0,30.26,East,84,0.0,0.0,86,0.00,,,0.00,,2013-03-30 12:22:00,
2013-03-30 08:32:00,55.0,51.0,30.27,East,84,0.0,0.0,85,0.00,,,0.00,,2013-03-30 12:32:00,
2013-03-30 08:42:00,55.0,51.0,30.27,East,84,0.0,0.0,85,0.00,,,0.00,,2013-03-30 12:42:00,
2013-03-30 08:53:00,57.0,53.0,30.27,East,84,0.0,0.0,85,0.00,,,0.00,,2013-03-30 12:53:00,
2013-03-30 09:02:00,60.0,55.0,30.27,East,85,0.0,0.0,83,0.00,,,0.00,,2013-03-30 13:02:00,
2013-03-30 09:12:00,60.0,55.0,30.27,East,85,0.0,0.0,83,0.00,,,0.00,,2013-03-30 13:12:00,
2013-03-30 09:22:00,62.0,55.0,30.27,East,89,0.0,4.0,79,0.00,,,0.00,,2013-03-30 13:22:00,
2013-03-30 09:32:00,64.0,55.0,30.27,SE,138,3.0,6.0,73,0.00,,,0.00,,2013-03-30 13:32:00,
2013-03-30 09:43:00,64.0,55.0,30.27,SE,138,3.0,6.0,73,0.00,,,0.00,,2013-03-30 13:43:00,
2013-03-30 09:53:00,66.0,55.0,30.27,SE,139,1.0,6.0,68,0.00,,,0.00,,2013-03-30 13:53:00,
2013-03-30 10:03:00,67.0,55.0,30.27,SSE,153,3.0,9.0,65,0.00,,,0.00,,2013-03-30 14:03:00,
2013-03-30 10:12:00,67.0,55.0,30.27,SSE,153,3.0,9.0,65,0.00,,,0.00,,2013-03-30 14:12:00,
2013-03-30 10:23:00,68.0,54.0,30.27,South,184,6.0,11.0,62,0.00,,,0.00,,2013-03-30 14:23:00,
2013-03-30 10:32:00,69.0,55.0,30.27,SE,146,3.0,14.0,60,0.00,,,0.00,,2013-03-30 14:32:00,
2013-03-30 10:42:00,69.0,55.0,30.27,SE,146,3.0,14.0,60,0.00,,,0.00,,2013-03-30 14:42:00,
2013-03-30 10:52:00,70.0,55.0,30.27,SSW,206,4.0,13.0,58,0.00,,,0.00,,2013-03-30 14:52:00,
2013-03-30 11:03:00,71.0,55.0,30.27,WSW,245,5.0,11.0,57,0.00,,,0.00,,2013-03-30 15:03:00,
2013-03-30 11:12:00,71.0,55.0,30.27,WSW,245,5.0,11.0,57,0.00,,,0.00,,2013-03-30 15:12:00,
2013-03-30 11:22:00,72.0,55.0,30.27,South,184,3.0,9.0,56,0.00,,,0.00,,2013-03-30 15:22:00,
2013-03-30 11:33:00,72.0,54.0,30.27,SE,131,4.0,9.0,53,0.00,,,0.00,,2013-03-30 15:33:00,
2013-03-30 11:43:00,72.0,54.0,30.27,SE,131,4.0,9.0,53,0.00,,,0.00,,2013-03-30 15:43:00,
2013-03-30 11:53:00,73.0,54.0,30.27,SE,141,5.0,10.0,52,0.00,,,0.00,,2013-03-30 15:53:00,
2013-03-30 12:03:00,74.0,54.0,30.26,South,169,5.0,12.0,50,0.00,,,0.00,,2013-03-30 16:03:00,
2013-03-30 12:13:00,73.0,53.0,30.26,SE,145,3.0,8.0,50,0.00,,,0.00,,2013-03-30 16:13:00,
2013-03-30 12:23:00,73.0,53.0,30.26,SE,145,3.0,8.0,50,0.00,,,0.00,,2013-03-30 16:23:00,
2013-03-30 12:33:00,74.0,53.0,30.25,WSW,247,4.0,10.0,48,0.00,,,0.00,,2013-03-30 16:33:00,
2013-03-30 12:43:00,74.0,53.0,30.25,WSW,247,4.0,10.0,48,0.00,,,0.00,,2013-03-30 16:43:00,
2013-03-30 12:53:00,74.0,54.0,30.25,SSW,204,4.0,7.0,49,0.00,,,0.00,,2013-03-30 16:53:00,
2013-03-30 13:02:00,75.0,53.0,30.24,SSE,154,2.0,11.0,47,0.00,,,0.00,,2013-03-30 17:02:00,
2013-03-30 13:13:00,75.0,53.0,30.24,SSE,154,2.0,11.0,47,0.00,,,0.00,,2013-03-30 17:13:00,
2013-03-30 13:23:00,75.0,53.0,30.24,West,260,3.0,7.0,46,0.00,,,0.00,,2013-03-30 17:23:00,
2013-03-30 13:32:00,75.0,52.0,30.23,WSW,257,4.0,11.0,45,0.00,,,0.00,,2013-03-30 17:32:00,
2013-03-30 13:42:00,75.0,52.0,30.23,WSW,257,4.0,11.0,45,0.00,,,0.00,,2013-03-30 17:42:00,
2013-03-30 13:53:00,76.0,54.0,30.22,SE,139,3.0,12.0,46,0.00,,,0.00,,2013-03-30 17:53:00,
2013-03-30 14:03:00,76.0,54.0,30.22,West,266,3.0,8.0,46,0.00,,,0.00,,2013-03-30 18:03:00,
2013-03-30 14:12:00,77.0,53.0,30.21,West,281,1.0,12.0,44,0.00,,,0.00,,2013-03-30 18:12:00,
2013-03-30 14:22:00,77.0,53.0,30.21,West,281,1.0,12.0,44,0.00,,,0.00,,2013-03-30 18:22:00,
2013-03-30 14:32:00,76.0,52.0,30.20,SW,229,5.0,9.0,44,0.00,,,0.00,,2013-03-30 18:32:00,
2013-03-30 14:42:00,76.0,52.0,30.20,SW,229,5.0,9.0,44,0.00,,,0.00,,2013-03-30 18:42:00,
2013-03-30 14:53:00,77.0,53.0,30.19,SSE,156,1.0,8.0,43,0.00,,,0.00,,2013-03-30 18:53:00,
2013-03-30 15:03:00,78.0,52.0,30.19,ESE,117,2.0,7.0,40,0.00,,,0.00,,2013-03-30 19:03:00,
2013-03-30 15:13:00,78.0,52.0,30.19,ESE,117,2.0,7.0,40,0.00,,,0.00,,2013-03-30 19:13:00,
2013-03-30 15:22:00,77.0,50.0,30.17,South,173,0.0,9.0,39,0.00,,,0.00,,2013-03-30 19:22:00,
2013-03-30 15:32:00,78.0,53.0,30.17,WSW,248,5.0,9.0,42,0.00,,,0.00,,2013-03-30 19:32:00,
2013-03-30 15:42:00,78.0,53.0,30.17,WSW,248,5.0,9.0,42,0.00,,,0.00,,2013-03-30 19:42:00,
2013-03-30 15:53:00,79.0,52.0,30.16,SE,140,5.0,9.0,39,0.00,,,0.00,,2013-03-30 19:53:00,
2013-03-30 16:02:00,79.0,51.0,30.16,South,179,3.0,8.0,38,0.00,,,0.00,,2013-03-30 20:02:00,
2013-03-30 16:12:00,79.0,51.0,30.16,South,179,3.0,8.0,38,0.00,,,0.00,,2013-03-30 20:12:00,
2013-03-30 16:22:00,78.0,52.0,30.15,ESE,110,1.0,9.0,40,0.00,,,0.00,,2013-03-30 20:22:00,
2013-03-30 16:32:00,81.0,53.0,30.15,NNW,347,3.0,6.0,38,0.00,,,0.00,,2013-03-30 20:32:00,
2013-03-30 16:42:00,81.0,53.0,30.15,NNW,347,3.0,6.0,38,0.00,,,0.00,,2013-03-30 20:42:00,
2013-03-30 16:53:00,79.0,55.0,30.15,NNW,343,5.0,12.0,44,0.00,,,0.00,,2013-03-30 20:53:00,
2013-03-30 17:02:00,78.0,54.0,30.15,NW,304,7.0,14.0,44,0.00,,,0.00,,2013-03-30 21:02:00,
2013-03-30 17:12:00,78.0,54.0,30.15,NW,304,7.0,14.0,44,0.00,,,0.00,,2013-03-30 21:12:00,
2013-03-30 17:22:00,78.0,54.0,30.14,NW,310,3.0,16.0,44,0.00,,,0.00,,2013-03-30 21:22:00,
2013-03-30 17:34:00,77.0,53.0,30.15,WNW,288,4.0,16.0,44,0.00,,,0.00,,2013-03-30 21:34:00,
2013-03-30 17:43:00,77.0,53.0,30.15,WNW,288,4.0,16.0,44,0.00,,,0.00,,2013-03-30 21:43:00,
2013-03-30 17:53:00,76.0,54.0,30.14,NW,326,3.0,9.0,46,0.00,,,0.00,,2013-03-30 21:53:00,
2013-03-30 18:03:00,75.0,53.0,30.14,NW,309,4.0,9.0,46,0.00,,,0.00,,2013-03-30 22:03:00,
2013-03-30 18:13:00,75.0,53.0,30.14,NW,309,4.0,9.0,46,0.00,,,0.00,,2013-03-30 22:13:00,
2013-03-30 18:23:00,75.0,53.0,30.14,WNW,303,4.0,8.0,47,0.00,,,0.00,,2013-03-30 22:23:00,
2013-03-30 18:33:00,75.0,53.0,30.15,WNW,302,4.0,8.0,46,0.00,,,0.00,,2013-03-30 22:33:00,
2013-03-30 18:43:00,75.0,53.0,30.15,WNW,302,4.0,8.0,46,0.00,,,0.00,,2013-03-30 22:43:00,
2013-03-30 18:54:00,74.0,52.0,30.15,WNW,300,1.0,6.0,47,0.00,,,0.00,,2013-03-30 22:54:00,
2013-03-30 19:02:00,73.0,53.0,30.15,NW,321,1.0,7.0,49,0.00,,,0.00,,2013-03-30 23:02:00,
2013-03-30 19:12:00,73.0,53.0,30.15,NW,321,1.0,7.0,49,0.00,,,0.00,,2013-03-30 23:12:00,
2013-03-30 19:22:00,73.0,52.0,30.15,NW,312,1.0,4.0,48,0.00,,,0.00,,2013-03-30 23:22:00,
2013-03-30 19:33:00,72.0,52.0,30.15,NW,315,2.0,4.0,50,0.00,,,0.00,,2013-03-30 23:33:00,
2013-03-30 19:42:00,72.0,52.0,30.15,NW,315,2.0,4.0,50,0.00,,,0.00,,2013-03-30 23:42:00,
2013-03-30 19:53:00,71.0,52.0,30.16,NW,309,0.0,6.0,52,0.00,,,0.00,,2013-03-30 23:53:00,
2013-03-30 20:02:00,70.0,53.0,30.16,NW,309,0.0,0.0,54,0.00,,,0.00,,2013-03-31 00:02:00,
2013-03-30 20:12:00,70.0,53.0,30.16,NW,309,0.0,0.0,54,0.00,,,0.00,,2013-03-31 00:12:00,
2013-03-30 20:22:00,69.0,53.0,30.16,NW,309,0.0,2.0,57,0.00,,,0.00,,2013-03-31 00:22:00,
2013-03-30 20:32:00,68.0,54.0,30.16,NW,309,0.0,0.0,60,0.00,,,0.00,,2013-03-31 00:32:00,
2013-03-30 20:42:00,68.0,54.0,30.16,NW,309,0.0,0.0,60,0.00,,,0.00,,2013-03-31 00:42:00,
2013-03-30 20:53:00,66.0,53.0,30.17,NW,309,0.0,0.0,63,0.00,,,0.00,,2013-03-31 00:53:00,
2013-03-30 21:02:00,66.0,53.0,30.17,NW,309,0.0,0.0,64,0.00,,,0.00,,2013-03-31 01:02:00,
2013-03-30 21:12:00,66.0,53.0,30.17,NW,309,0.0,0.0,64,0.00,,,0.00,,2013-03-31 01:12:00,
2013-03-30 21:22:00,65.0,53.0,30.18,NW,309,0.0,0.0,66,0.00,,,0.00,,2013-03-31 01:22:00,
2013-03-30 21:32:00,64.0,53.0,30.18,NW,309,0.0,0.0,68,0.00,,,0.00,,2013-03-31 01:32:00,
2013-03-30 21:42:00,64.0,53.0,30.18,NW,309,0.0,0.0,68,0.00,,,0.00,,2013-03-31 01:42:00,
2013-03-30 21:53:00,64.0,54.0,30.18,NW,309,0.0,0.0,70,0.00,,,0.00,,2013-03-31 01:53:00,
2013-03-30 22:02:00,62.0,53.0,30.19,NW,309,0.0,0.0,73,0.00,,,0.00,,2013-03-31 02:02:00,
2013-03-30 22:13:00,62.0,53.0,30.19,NW,309,0.0,0.0,73,0.00,,,0.00,,2013-03-31 02:13:00,
2013-03-30 22:22:00,60.0,52.0,30.19,NW,309,0.0,0.0,74,0.00,,,0.00,,2013-03-31 02:22:00,
2013-03-30 22:32:00,60.0,52.0,30.20,NW,309,0.0,0.0,76,0.00,,,0.00,,2013-03-31 02:32:00,
2013-03-30 22:43:00,60.0,52.0,30.20,NW,309,0.0,0.0,76,0.00,,,0.00,,2013-03-31 02:43:00,
2013-03-30 22:52:00,59.0,52.0,30.20,NW,309,0.0,0.0,78,0.00,,,0.00,,2013-03-31 02:52:00,
2013-03-30 23:02:00,59.0,52.0,30.21,NW,309,0.0,0.0,79,0.00,,,0.00,,2013-03-31 03:02:00,
2013-03-30 23:13:00,59.0,52.0,30.21,NW,309,0.0,0.0,79,0.00,,,0.00,,2013-03-31 03:13:00,
2013-03-30 23:22:00,58.0,52.0,30.21,NW,309,0.0,0.0,81,0.00,,,0.00,,2013-03-31 03:22:00,
2013-03-30 23:33:00,58.0,52.0,30.21,NW,309,0.0,0.0,81,0.00,,,0.00,,2013-03-31 03:33:00,
2013-03-30 23:43:00,58.0,52.0,30.21,NW,309,0.0,0.0,81,0.00,,,0.00,,2013-03-31 03:43:00,
2013-03-30 23:54:00,58.0,52.0,30.21,NW,309,0.0,0.0,81,0.00,,,0.00,,2013-03-31 03:54:00,